createdAt,value
2017-10-02T00:00:44.038Z,12.47
2017-10-02T00:03:11.065Z,10.53
2017-10-02T00:05:38.382Z,16.40
2017-10-02T00:08:04.654Z,14.63
2017-10-02T00:10:30.960Z,12.40
2017-10-02T00:12:57.961Z,11.07
2017-10-02T00:15:24.238Z,10.30
2017-10-02T00:17:50.515Z,15.83
2017-10-02T00:20:16.806Z,9.80
2017-10-02T00:22:43.082Z,10.47
2017-10-02T00:25:09.338Z,13.03
2017-10-02T00:27:36.374Z,13.53
2017-10-02T00:30:02.670Z,11.17
2017-10-02T00:32:28.941Z,12.27
2017-10-02T00:34:55.238Z,11.77
2017-10-02T00:37:21.521Z,11.50
2017-10-02T00:39:48.573Z,10.97
2017-10-02T00:42:15.586Z,8.53
2017-10-02T00:44:41.866Z,12.97
2017-10-02T00:47:08.170Z,12.60
2017-10-02T00:49:34.422Z,18.53
2017-10-02T00:52:00.741Z,9.93
2017-10-02T00:54:27.961Z,15.63
2017-10-02T00:56:54.254Z,11.60
2017-10-02T00:59:20.546Z,12.93
2017-10-02T01:01:46.826Z,13.57
2017-10-02T01:04:13.873Z,10.20
2017-10-02T01:06:40.890Z,10.70
2017-10-02T01:09:07.217Z,15.87
2017-10-02T01:11:34.244Z,14.83
2017-10-02T01:14:00.574Z,14.10
2017-10-02T01:16:26.854Z,11.97
2017-10-02T01:18:53.907Z,9.87
2017-10-02T01:21:20.929Z,10.20
2017-10-02T01:23:47.946Z,13.03
2017-10-02T01:26:14.985Z,10.17
2017-10-02T01:28:41.248Z,17.00
2017-10-02T01:31:07.502Z,10.90
2017-10-02T01:33:35.614Z,12.37
2017-10-02T01:36:01.871Z,13.63
2017-10-02T01:38:28.907Z,13.90
2017-10-02T01:40:55.918Z,15.17
2017-10-02T01:43:22.195Z,11.23
2017-10-02T01:45:48.470Z,18.63
2017-10-02T01:48:15.498Z,9.20
2017-10-02T01:50:42.806Z,18.13
2017-10-02T01:53:09.066Z,14.33
2017-10-02T01:55:35.358Z,13.03
2017-10-02T01:58:01.614Z,11.23
2017-10-02T02:00:27.930Z,12.60
2017-10-02T02:02:54.229Z,14.60
2017-10-02T02:05:20.498Z,13.70
2017-10-02T02:07:46.782Z,10.90
2017-10-02T02:10:13.074Z,10.83
2017-10-02T02:12:39.350Z,12.93
2017-10-02T02:15:06.374Z,18.27
2017-10-02T02:17:32.646Z,13.10
2017-10-02T02:19:58.945Z,12.57
2017-10-02T02:22:25.194Z,16.77
2017-10-02T02:24:51.490Z,16.47
2017-10-02T02:27:17.758Z,15.80
2017-10-02T02:29:45.863Z,10.27
2017-10-02T02:32:12.146Z,15.90
2017-10-02T02:34:38.409Z,13.80
2017-10-02T02:37:04.686Z,15.17
2017-10-02T02:39:30.939Z,16.30
2017-10-02T02:41:57.234Z,14.07
2017-10-02T02:44:23.512Z,15.10
2017-10-02T02:46:50.522Z,14.23
2017-10-02T02:49:16.803Z,15.97
2017-10-02T02:51:43.082Z,16.63
2017-10-02T02:54:09.354Z,12.77
2017-10-02T02:56:35.614Z,12.20
2017-10-02T02:59:01.919Z,14.23
2017-10-02T03:01:28.189Z,14.17
2017-10-02T03:03:54.465Z,14.63
2017-10-02T03:06:20.774Z,15.93
2017-10-02T03:08:47.017Z,16.23
2017-10-02T03:11:13.311Z,11.77
2017-10-02T03:13:39.606Z,14.00
2017-10-02T03:16:05.912Z,12.90
2017-10-02T03:18:32.914Z,14.80
2017-10-02T03:20:59.956Z,16.60
2017-10-02T03:23:26.226Z,15.27
2017-10-02T03:25:52.489Z,12.33
2017-10-02T03:28:18.790Z,13.90
2017-10-02T03:30:45.056Z,17.27
2017-10-02T03:33:11.350Z,13.50
2017-10-02T03:35:37.622Z,13.57
2017-10-02T03:38:03.910Z,11.50
2017-10-02T03:40:30.182Z,15.10
2017-10-02T03:42:56.446Z,11.27
2017-10-02T03:45:22.742Z,13.40
2017-10-02T03:47:49.002Z,15.93
2017-10-02T03:50:15.313Z,13.80
2017-10-02T03:52:41.587Z,16.17
2017-10-02T03:55:08.126Z,13.37
2017-10-02T03:57:34.419Z,18.57
2017-10-02T04:00:00.677Z,15.53
2017-10-02T04:02:27.710Z,15.33
2017-10-02T04:04:54.025Z,13.93
2017-10-02T04:07:20.298Z,11.10
2017-10-02T04:09:46.614Z,12.10
2017-10-02T04:12:12.905Z,13.83
2017-10-02T04:14:39.186Z,13.67
2017-10-02T04:17:05.450Z,15.23
2017-10-02T04:19:31.713Z,9.43
2017-10-02T04:21:57.982Z,12.10
2017-10-02T04:24:24.238Z,11.17
2017-10-02T04:26:50.505Z,13.70
2017-10-02T04:29:16.790Z,12.70
2017-10-02T04:31:43.051Z,14.17
2017-10-02T04:34:09.354Z,10.97
2017-10-02T04:36:35.603Z,14.70
2017-10-02T04:39:02.686Z,9.87
2017-10-02T04:41:28.955Z,12.83
2017-10-02T04:43:55.254Z,13.10
2017-10-02T04:46:22.250Z,12.57
2017-10-02T04:48:48.514Z,17.50
2017-10-02T04:51:14.782Z,11.53
2017-10-02T04:53:42.110Z,10.37
2017-10-02T04:56:08.409Z,11.83
2017-10-02T04:58:34.722Z,18.20
2017-10-02T05:01:00.999Z,12.00
2017-10-02T05:03:28.001Z,11.00
2017-10-02T05:05:54.314Z,10.67
2017-10-02T05:08:20.582Z,13.13
2017-10-02T05:10:46.882Z,16.93
2017-10-02T05:13:13.242Z,11.57
2017-10-02T05:15:39.535Z,11.73
2017-10-02T05:18:05.810Z,18.93
2017-10-02T05:20:32.813Z,12.87
2017-10-02T05:22:59.106Z,11.70
2017-10-02T05:25:25.374Z,18.37
2017-10-02T05:27:51.626Z,13.23
2017-10-02T05:30:17.946Z,13.70
2017-10-02T05:32:44.189Z,17.10
2017-10-02T05:35:11.962Z,13.57
2017-10-02T05:37:39.657Z,11.00
2017-10-02T05:40:07.558Z,16.80
2017-10-02T05:42:33.806Z,12.57
2017-10-02T05:45:00.087Z,11.63
2017-10-02T05:47:26.362Z,17.80
2017-10-02T05:49:52.641Z,15.50
2017-10-02T05:52:18.967Z,11.90
2017-10-02T05:54:46.327Z,12.70
2017-10-02T05:57:12.597Z,10.10
2017-10-02T05:59:38.870Z,10.20
2017-10-02T06:02:05.953Z,13.20
2017-10-02T06:04:32.270Z,10.67
2017-10-02T06:06:58.575Z,11.40
2017-10-02T06:09:24.877Z,9.00
2017-10-02T06:11:51.154Z,9.07
2017-10-02T06:14:17.401Z,9.30
2017-10-02T06:16:43.693Z,11.70
2017-10-02T06:19:09.962Z,11.47
2017-10-02T06:21:36.239Z,12.07
2017-10-02T06:24:03.270Z,11.83
2017-10-02T06:26:29.514Z,12.83
2017-10-02T06:28:55.794Z,9.60
2017-10-02T06:31:22.812Z,16.60
2017-10-02T06:33:49.087Z,17.93
2017-10-02T06:36:15.354Z,14.70
2017-10-02T06:38:42.366Z,14.07
2017-10-02T06:41:08.650Z,17.10
2017-10-02T06:43:34.938Z,10.00
2017-10-02T06:46:01.234Z,8.90
2017-10-02T06:48:27.490Z,14.50
2017-10-02T06:50:53.772Z,11.40
2017-10-02T06:53:20.065Z,9.50
2017-10-02T06:55:47.094Z,13.00
2017-10-02T06:58:13.385Z,9.90
2017-10-02T07:00:40.445Z,13.27
2017-10-02T07:03:06.693Z,9.33
2017-10-02T07:05:33.011Z,12.97
2017-10-02T07:07:59.266Z,14.07
2017-10-02T07:10:25.554Z,9.87
2017-10-02T07:12:51.806Z,14.53
2017-10-02T07:15:18.070Z,10.73
2017-10-02T07:17:44.386Z,10.07
2017-10-02T07:20:10.642Z,14.23
2017-10-02T07:22:36.923Z,15.33
2017-10-02T07:25:03.266Z,11.40
2017-10-02T07:27:29.561Z,8.83
2017-10-02T07:29:55.850Z,16.10
2017-10-02T07:32:22.145Z,13.97
2017-10-02T07:34:49.171Z,8.90
2017-10-02T07:37:16.151Z,10.07
2017-10-02T07:39:42.492Z,10.83
2017-10-02T07:42:08.762Z,13.73
2017-10-02T07:44:37.142Z,9.73
2017-10-02T07:47:03.390Z,10.57
2017-10-02T07:49:30.451Z,11.87
2017-10-02T07:51:56.714Z,9.40
2017-10-02T07:54:24.032Z,9.87
2017-10-02T07:56:50.334Z,16.83
2017-10-02T07:59:16.582Z,7.27
2017-10-02T08:01:42.870Z,15.13
2017-10-02T08:04:09.130Z,11.60
2017-10-02T08:06:35.395Z,12.30
2017-10-02T08:09:01.682Z,6.40
2017-10-02T08:11:27.986Z,21.13
2017-10-02T08:13:54.230Z,12.20
2017-10-02T08:16:20.526Z,12.93
2017-10-02T08:18:46.803Z,9.77
2017-10-02T08:21:13.079Z,10.30
2017-10-02T08:23:40.407Z,9.57
2017-10-02T08:26:06.695Z,8.80
2017-10-02T08:28:32.973Z,9.83
2017-10-02T08:30:59.283Z,9.33
2017-10-02T08:33:25.574Z,9.60
2017-10-02T08:35:51.918Z,13.10
2017-10-02T08:38:19.278Z,12.87
2017-10-02T08:40:45.557Z,12.87
2017-10-02T08:43:11.845Z,12.83
2017-10-02T08:45:38.145Z,12.53
2017-10-02T08:48:04.390Z,9.30
2017-10-02T08:50:30.674Z,12.97
2017-10-02T08:52:56.946Z,8.57
2017-10-02T08:55:23.250Z,12.73
2017-10-02T08:57:49.511Z,10.23
2017-10-02T09:00:15.793Z,10.97
2017-10-02T09:02:42.042Z,12.23
2017-10-02T09:05:08.329Z,8.27
2017-10-02T09:07:35.336Z,8.83
2017-10-02T09:10:02.338Z,9.87
2017-10-02T09:12:28.630Z,7.90
2017-10-02T09:14:54.882Z,7.50
2017-10-02T09:17:21.170Z,6.87
2017-10-02T09:19:49.542Z,7.40
2017-10-02T09:22:16.867Z,6.73
2017-10-02T09:24:43.217Z,11.00
2017-10-02T09:27:09.486Z,7.60
2017-10-02T09:29:35.766Z,6.90
2017-10-02T09:32:02.035Z,8.40
2017-10-02T09:34:28.301Z,10.13
2017-10-02T09:36:54.567Z,10.23
2017-10-02T09:39:20.850Z,7.33
2017-10-02T09:41:47.098Z,7.60
2017-10-02T09:44:13.434Z,5.77
2017-10-02T09:46:39.702Z,10.53
2017-10-02T09:49:05.974Z,7.33
2017-10-02T09:51:33.009Z,13.00
2017-10-02T09:53:59.254Z,8.03
2017-10-02T09:56:25.534Z,7.70
2017-10-02T09:58:52.558Z,8.30
2017-10-02T10:01:18.842Z,7.93
2017-10-02T10:03:45.117Z,7.47
2017-10-02T10:06:11.393Z,5.57
2017-10-02T10:08:37.714Z,6.20
2017-10-02T10:11:03.972Z,9.20
2017-10-02T10:13:30.262Z,4.73
2017-10-02T10:15:56.527Z,7.20
2017-10-02T10:18:22.805Z,11.00
2017-10-02T10:20:49.078Z,5.43
2017-10-02T10:23:16.406Z,4.93
2017-10-02T10:25:42.686Z,5.57
2017-10-02T10:28:08.949Z,5.50
2017-10-02T10:30:35.242Z,4.13
2017-10-02T10:33:01.527Z,3.30
2017-10-02T10:35:27.811Z,3.47
2017-10-02T10:37:54.092Z,6.40
2017-10-02T10:40:20.383Z,3.53
2017-10-02T10:42:46.654Z,3.97
2017-10-02T10:45:13.689Z,4.77
2017-10-02T10:47:39.947Z,3.10
2017-10-02T10:50:06.238Z,3.97
2017-10-02T10:52:32.585Z,3.10
2017-10-02T10:54:58.853Z,4.20
2017-10-02T10:57:25.137Z,4.67
2017-10-02T10:59:51.450Z,3.43
2017-10-02T11:02:17.718Z,3.13
2017-10-02T11:04:44.029Z,4.93
2017-10-02T11:07:10.282Z,3.57
2017-10-02T11:09:36.543Z,4.30
2017-10-02T11:12:02.842Z,4.60
2017-10-02T11:14:29.091Z,3.60
2017-10-02T11:16:55.375Z,4.40
2017-10-02T11:19:21.673Z,3.90
2017-10-02T11:21:47.934Z,4.40
2017-10-02T11:24:14.231Z,4.00
2017-10-02T11:26:41.482Z,5.73
2017-10-02T11:29:07.750Z,4.47
2017-10-02T11:31:34.050Z,4.20
2017-10-02T11:34:00.342Z,3.33
2017-10-02T11:36:26.615Z,6.60
2017-10-02T11:38:52.910Z,6.70
2017-10-02T11:41:19.162Z,4.20
2017-10-02T11:43:45.465Z,6.00
2017-10-02T11:46:13.738Z,2.70
2017-10-02T11:48:40.018Z,3.03
2017-10-02T11:51:06.285Z,3.87
2017-10-02T11:53:32.553Z,4.00
2017-10-02T11:55:58.866Z,5.03
2017-10-02T11:58:25.130Z,3.17
2017-10-02T12:00:51.422Z,5.87
2017-10-02T12:03:17.700Z,3.17
2017-10-02T12:05:43.954Z,6.93
2017-10-02T12:08:10.270Z,3.40
2017-10-02T12:10:36.526Z,5.70
2017-10-02T12:13:02.782Z,3.40
2017-10-02T12:15:29.050Z,4.03
2017-10-02T12:17:55.326Z,3.27
2017-10-02T12:20:21.654Z,2.90
2017-10-02T12:22:47.910Z,2.83
2017-10-02T12:25:14.934Z,2.97
2017-10-02T12:27:42.218Z,2.73
2017-10-02T12:30:08.522Z,2.23
2017-10-02T12:32:34.836Z,4.10
2017-10-02T12:35:01.118Z,4.47
2017-10-02T12:37:27.433Z,4.53
2017-10-02T12:39:54.488Z,3.30
2017-10-02T12:42:21.493Z,2.50
2017-10-02T12:44:48.537Z,2.33
2017-10-02T12:47:14.798Z,3.40
2017-10-02T12:49:41.074Z,2.93
2017-10-02T12:52:07.362Z,3.53
2017-10-02T12:54:34.394Z,2.70
2017-10-02T12:57:00.673Z,5.60
2017-10-02T12:59:26.945Z,3.50
2017-10-02T13:01:53.975Z,5.03
2017-10-02T13:04:21.338Z,7.90
2017-10-02T13:06:48.706Z,8.03
2017-10-02T13:09:15.025Z,3.93
2017-10-02T13:11:41.294Z,4.30
2017-10-02T13:14:07.558Z,7.10
2017-10-02T13:16:35.698Z,12.00
2017-10-02T13:19:01.967Z,8.70
2017-10-02T13:21:28.963Z,11.87
2017-10-02T13:23:55.249Z,13.47
2017-10-02T13:26:21.510Z,8.07
2017-10-02T13:28:47.830Z,8.97
2017-10-02T13:31:14.818Z,7.43
2017-10-02T13:33:41.113Z,10.07
2017-10-02T13:36:07.378Z,9.80
2017-10-02T13:38:33.626Z,10.40
2017-10-02T13:40:59.924Z,7.37
2017-10-02T13:43:26.937Z,11.97
2017-10-02T13:45:53.961Z,10.77
2017-10-02T13:48:20.222Z,6.80
2017-10-02T13:50:46.522Z,7.23
2017-10-02T13:53:12.775Z,6.83
2017-10-02T13:55:40.907Z,8.00
2017-10-02T13:58:08.258Z,8.13
2017-10-02T14:00:34.526Z,9.67
2017-10-02T14:03:01.547Z,12.23
2017-10-02T14:05:28.578Z,16.27
2017-10-02T14:07:54.891Z,10.63
2017-10-02T14:10:21.138Z,12.67
2017-10-02T14:12:47.431Z,6.50
2017-10-02T14:15:14.442Z,8.63
2017-10-02T14:17:40.699Z,9.67
2017-10-02T14:20:06.998Z,9.10
2017-10-02T14:22:33.270Z,8.63
2017-10-02T14:24:59.558Z,7.20
2017-10-02T14:27:25.842Z,7.27
2017-10-02T14:29:52.834Z,7.60
2017-10-02T14:32:19.113Z,5.23
2017-10-02T14:34:45.401Z,17.27
2017-10-02T14:37:11.670Z,5.90
2017-10-02T14:39:37.962Z,6.53
2017-10-02T14:42:04.226Z,7.20
2017-10-02T14:44:31.221Z,10.90
2017-10-02T14:46:57.498Z,9.13
2017-10-02T14:49:23.774Z,6.13
2017-10-02T14:51:50.029Z,8.97
2017-10-02T14:54:16.301Z,11.83
2017-10-02T14:56:43.309Z,9.80
2017-10-02T14:59:09.550Z,8.60
2017-10-02T15:01:35.818Z,14.07
2017-10-02T15:04:02.842Z,10.20
2017-10-02T15:06:29.094Z,4.87
2017-10-02T15:08:55.358Z,16.20
2017-10-02T15:11:21.633Z,35.20
2017-10-02T15:13:47.906Z,10.27
2017-10-02T15:16:14.162Z,7.63
2017-10-02T15:18:40.433Z,7.93
2017-10-02T15:21:06.693Z,22.70
2017-10-02T15:23:32.977Z,2.83
2017-10-02T15:25:59.265Z,3.30
2017-10-02T15:28:25.526Z,5.50
2017-10-02T15:30:51.770Z,2.70
2017-10-02T15:33:18.073Z,2.90
2017-10-02T15:35:44.331Z,2.20
2017-10-02T15:38:10.602Z,2.70
2017-10-02T15:40:36.875Z,2.90
2017-10-02T15:43:03.136Z,2.90
2017-10-02T15:45:29.429Z,3.67
2017-10-02T15:47:55.717Z,2.87
2017-10-02T15:50:22.006Z,3.97
2017-10-02T15:52:48.286Z,2.40
2017-10-02T15:55:15.657Z,2.40
2017-10-02T15:57:41.954Z,3.30
2017-10-02T16:00:08.222Z,4.13
2017-10-02T16:02:35.262Z,2.73
2017-10-02T16:05:01.518Z,3.70
2017-10-02T16:07:28.750Z,7.13
2017-10-02T16:09:55.051Z,4.90
2017-10-02T16:12:21.306Z,4.07
2017-10-02T16:14:47.602Z,2.90
2017-10-02T16:17:13.866Z,2.70
2017-10-02T16:19:40.906Z,4.20
2017-10-02T16:22:07.163Z,3.13
2017-10-02T16:24:33.454Z,3.70
2017-10-02T16:26:59.738Z,3.73
2017-10-02T16:29:26.730Z,2.70
2017-10-02T16:31:53.017Z,3.60
2017-10-02T16:34:19.282Z,3.97
2017-10-02T16:36:46.318Z,4.60
2017-10-02T16:39:12.569Z,5.33
2017-10-02T16:41:39.595Z,3.10
2017-10-02T16:44:05.887Z,3.60
2017-10-02T16:46:32.177Z,3.47
2017-10-02T16:48:58.450Z,4.53
2017-10-02T16:51:24.764Z,3.30
2017-10-02T16:53:51.046Z,3.73
2017-10-02T16:56:18.122Z,3.53
2017-10-02T16:58:44.427Z,4.63
2017-10-02T17:01:10.705Z,10.37
2017-10-02T17:03:37.722Z,5.30
2017-10-02T17:06:04.008Z,3.70
2017-10-02T17:08:30.283Z,6.33
2017-10-02T17:10:56.657Z,3.70
2017-10-02T17:13:22.920Z,4.23
2017-10-02T17:15:49.224Z,3.53
2017-10-02T17:18:15.863Z,4.87
2017-10-02T17:20:42.261Z,4.13
2017-10-02T17:23:08.729Z,4.50
2017-10-02T17:25:36.129Z,4.00
2017-10-02T17:28:02.450Z,4.67
2017-10-02T17:30:28.734Z,4.20
2017-10-02T17:32:55.896Z,8.23
2017-10-02T17:35:22.812Z,6.37
2017-10-02T17:37:51.379Z,4.10
2017-10-02T17:40:19.743Z,7.23
2017-10-02T17:42:47.386Z,6.43
2017-10-02T17:45:15.749Z,5.50
2017-10-02T17:47:44.340Z,8.23
2017-10-02T17:50:12.365Z,12.37
2017-10-02T17:52:40.610Z,5.40
2017-10-02T17:55:09.118Z,7.33
2017-10-02T17:57:37.710Z,7.87
2017-10-02T18:00:06.912Z,8.50
2017-10-02T18:02:36.536Z,10.53
2017-10-02T18:05:06.058Z,11.27
2017-10-02T18:07:35.046Z,6.00
2017-10-02T18:10:04.215Z,8.93
2017-10-02T18:12:33.202Z,10.63
2017-10-02T18:15:02.314Z,8.23
2017-10-02T18:17:30.598Z,9.17
2017-10-02T18:19:59.321Z,10.57
2017-10-02T18:22:28.450Z,9.30
2017-10-02T18:24:57.536Z,6.93
2017-10-02T18:27:26.808Z,7.50
2017-10-02T18:29:56.043Z,9.83
2017-10-02T18:32:25.594Z,7.13
2017-10-02T18:34:54.714Z,9.43
2017-10-02T18:37:23.557Z,8.60
2017-10-02T18:39:52.469Z,13.07
2017-10-02T18:42:21.125Z,5.93
2017-10-02T18:44:50.821Z,10.93
2017-10-02T18:47:20.003Z,9.37
2017-10-02T18:49:48.741Z,10.17
2017-10-02T18:52:17.728Z,13.40
2017-10-02T18:54:46.841Z,12.53
2017-10-02T18:57:16.168Z,11.17
2017-10-02T18:59:45.322Z,12.63
2017-10-02T19:02:14.221Z,8.57
2017-10-02T19:04:44.810Z,13.83
2017-10-02T19:07:14.493Z,11.93
2017-10-02T19:09:43.566Z,9.40
2017-10-02T19:12:12.620Z,9.07
2017-10-02T19:14:42.318Z,9.17
2017-10-02T19:17:12.744Z,7.87
2017-10-02T19:19:41.836Z,8.70
2017-10-02T19:22:10.920Z,12.37
2017-10-02T19:24:39.942Z,11.83
2017-10-02T19:27:08.525Z,15.77
2017-10-02T19:29:37.933Z,11.40
2017-10-02T19:32:07.498Z,8.83
2017-10-02T19:34:36.506Z,11.03
2017-10-02T19:37:05.809Z,13.10
2017-10-02T19:39:35.305Z,12.40
2017-10-02T19:42:04.996Z,12.13
2017-10-02T19:44:34.786Z,9.40
2017-10-02T19:47:03.405Z,10.27
2017-10-02T19:49:32.532Z,12.70
2017-10-02T19:52:01.718Z,7.23
2017-10-02T19:54:30.749Z,12.00
2017-10-02T19:56:59.768Z,9.40
2017-10-02T19:59:29.353Z,13.00
2017-10-02T20:01:58.233Z,14.77
2017-10-02T20:04:26.861Z,9.90
2017-10-02T20:06:56.075Z,10.47
2017-10-02T20:09:26.901Z,11.97
2017-10-02T20:11:55.935Z,16.60
2017-10-02T20:14:24.811Z,16.40
2017-10-02T20:16:54.174Z,14.87
2017-10-02T20:19:22.882Z,10.37
2017-10-02T20:21:51.793Z,11.00
2017-10-02T20:24:20.982Z,10.80
2017-10-02T20:26:48.878Z,11.90
2017-10-02T20:29:17.714Z,8.37
2017-10-02T20:31:46.902Z,12.50
2017-10-02T20:34:15.651Z,11.17
2017-10-02T20:36:44.700Z,11.90
2017-10-02T20:39:15.759Z,9.37
2017-10-02T20:41:46.577Z,11.33
2017-10-02T20:44:15.673Z,13.27
2017-10-02T20:46:45.426Z,9.90
2017-10-02T20:49:14.546Z,6.53
2017-10-02T20:51:43.414Z,14.40
2017-10-02T20:54:12.907Z,18.03
2017-10-02T20:56:41.880Z,13.03
2017-10-02T20:59:10.972Z,11.23
2017-10-02T21:01:40.221Z,8.87
2017-10-02T21:04:23.379Z,13.77
2017-10-02T21:06:52.009Z,10.83
2017-10-02T21:09:21.268Z,12.20
2017-10-02T21:11:50.280Z,13.10
2017-10-02T21:14:20.386Z,11.97
2017-10-02T21:16:48.295Z,20.00
2017-10-02T21:19:16.030Z,13.47
2017-10-02T21:21:43.959Z,15.20
2017-10-02T21:24:13.723Z,12.93
2017-10-02T21:26:42.624Z,12.60
2017-10-02T21:29:11.432Z,13.50
2017-10-02T21:31:40.048Z,17.73
2017-10-02T21:34:07.647Z,11.53
2017-10-02T21:36:36.416Z,15.43
2017-10-02T21:39:04.470Z,11.17
2017-10-02T21:41:31.783Z,13.40
2017-10-02T21:43:58.162Z,20.13
2017-10-02T21:46:25.054Z,12.00
2017-10-02T21:48:51.422Z,13.33
2017-10-02T21:51:17.704Z,14.23
2017-10-02T21:53:44.298Z,15.83
2017-10-02T21:56:10.644Z,11.73
2017-10-02T21:58:36.979Z,15.60
2017-10-02T22:01:03.270Z,13.40
2017-10-02T22:03:29.584Z,12.70
2017-10-02T22:05:55.854Z,13.73
2017-10-02T22:08:22.118Z,20.33
2017-10-02T22:10:48.402Z,14.57
2017-10-02T22:13:29.669Z,21.60
2017-10-02T22:15:55.982Z,15.40
2017-10-02T22:18:22.250Z,15.47
2017-10-02T22:20:48.565Z,21.90
2017-10-02T22:23:14.834Z,25.73
2017-10-02T22:25:41.115Z,18.00
2017-10-02T22:28:07.383Z,13.70
2017-10-02T22:30:33.654Z,16.80
2017-10-02T22:33:00.692Z,12.17
2017-10-02T22:35:26.978Z,14.03
2017-10-02T22:37:53.258Z,15.03
2017-10-02T22:40:21.788Z,22.00
2017-10-02T22:42:49.413Z,14.50
2017-10-02T22:45:16.434Z,12.33
2017-10-02T22:47:42.740Z,13.53
2017-10-02T22:50:09.034Z,24.70
2017-10-02T22:52:35.309Z,18.13
2017-10-02T22:55:01.602Z,21.67
2017-10-02T22:57:27.897Z,11.27
2017-10-02T22:59:54.174Z,9.40
2017-10-02T23:02:20.447Z,10.77
2017-10-02T23:04:46.714Z,7.07
2017-10-02T23:07:12.990Z,10.83
2017-10-02T23:09:39.269Z,6.33
2017-10-02T23:12:05.554Z,7.07
2017-10-02T23:14:31.827Z,12.30
2017-10-02T23:16:58.118Z,8.63
2017-10-02T23:19:24.427Z,5.47
2017-10-02T23:21:50.714Z,9.43
2017-10-02T23:24:17.022Z,7.43
2017-10-02T23:26:43.278Z,12.93
2017-10-02T23:29:10.321Z,15.73
2017-10-02T23:31:37.314Z,10.30
2017-10-02T23:34:03.605Z,14.67
2017-10-02T23:36:29.891Z,9.50
2017-10-02T23:38:56.149Z,12.90
2017-10-02T23:41:23.484Z,13.80
2017-10-02T23:43:49.766Z,7.90
2017-10-02T23:46:16.050Z,5.70
2017-10-02T23:48:43.046Z,9.50
2017-10-02T23:51:09.338Z,12.10
2017-10-02T23:53:35.637Z,12.87
2017-10-02T23:56:01.923Z,10.10
2017-10-02T23:58:28.229Z,5.67
